sensor_id;sensor_type;location;lat;lon;timestamp;P1;durP1;ratioP1;P2;durP2;ratioP2
48481;SDS011;34284;48.278;16.378;2023-07-20T00:01:22;325.75;;;273.90;;
48481;SDS011;34284;48.278;16.378;2023-07-20T00:03:48;328.70;;;275.90;;
48481;SDS011;34284;48.278;16.378;2023-07-20T00:06:23;332.60;;;278.23;;
48481;SDS011;34284;48.278;16.378;2023-07-20T00:08:51;334.02;;;274.88;;
48481;SDS011;34284;48.278;16.378;2023-07-20T00:11:17;332.10;;;274.60;;
48481;SDS011;34284;48.278;16.378;2023-07-20T00:13:43;329.83;;;272.92;;
48481;SDS011;34284;48.278;16.378;2023-07-20T00:16:09;321.10;;;271.23;;
48481;SDS011;34284;48.278;16.378;2023-07-20T00:18:35;323.92;;;270.90;;
48481;SDS011;34284;48.278;16.378;2023-07-20T00:21:01;322.83;;;272.80;;
48481;SDS011;34284;48.278;16.378;2023-07-20T00:23:27;322.80;;;272.02;;
48481;SDS011;34284;48.278;16.378;2023-07-20T00:25:53;326.88;;;270.33;;
48481;SDS011;34284;48.278;16.378;2023-07-20T00:28:20;327.15;;;273.00;;
48481;SDS011;34284;48.278;16.378;2023-07-20T00:30:46;335.08;;;274.00;;
48481;SDS011;34284;48.278;16.378;2023-07-20T00:33:12;324.15;;;275.95;;
48481;SDS011;34284;48.278;16.378;2023-07-20T00:35:38;323.00;;;275.35;;
48481;SDS011;34284;48.278;16.378;2023-07-20T00:38:05;326.98;;;275.27;;
48481;SDS011;34284;48.278;16.378;2023-07-20T00:40:37;320.92;;;272.08;;
48481;SDS011;34284;48.278;16.378;2023-07-20T00:43:03;323.02;;;271.55;;
48481;SDS011;34284;48.278;16.378;2023-07-20T00:45:29;323.33;;;270.27;;
48481;SDS011;34284;48.278;16.378;2023-07-20T00:47:55;330.25;;;268.27;;
48481;SDS011;34284;48.278;16.378;2023-07-20T00:50:23;325.30;;;266.95;;
48481;SDS011;34284;48.278;16.378;2023-07-20T00:52:49;328.30;;;274.25;;
48481;SDS011;34284;48.278;16.378;2023-07-20T00:55:15;335.50;;;273.17;;
48481;SDS011;34284;48.278;16.378;2023-07-20T00:57:41;325.63;;;273.63;;
48481;SDS011;34284;48.278;16.378;2023-07-20T01:00:07;323.33;;;274.13;;
48481;SDS011;34284;48.278;16.378;2023-07-20T01:02:33;323.70;;;277.13;;
48481;SDS011;34284;48.278;16.378;2023-07-20T01:04:59;324.73;;;273.20;;
48481;SDS011;34284;48.278;16.378;2023-07-20T01:12:31;333.23;;;275.83;;
48481;SDS011;34284;48.278;16.378;2023-07-20T01:14:58;324.92;;;273.00;;
48481;SDS011;34284;48.278;16.378;2023-07-20T01:17:24;329.50;;;276.17;;
48481;SDS011;34284;48.278;16.378;2023-07-20T01:19:50;326.58;;;277.25;;
48481;SDS011;34284;48.278;16.378;2023-07-20T01:24:56;327.77;;;272.05;;
48481;SDS011;34284;48.278;16.378;2023-07-20T01:32:36;333.33;;;270.50;;
48481;SDS011;34284;48.278;16.378;2023-07-20T01:35:03;339.05;;;275.40;;
48481;SDS011;34284;48.278;16.378;2023-07-20T01:37:31;328.98;;;269.40;;
48481;SDS011;34284;48.278;16.378;2023-07-20T01:39:58;320.88;;;270.02;;
48481;SDS011;34284;48.278;16.378;2023-07-20T01:42:24;329.50;;;271.65;;
48481;SDS011;34284;48.278;16.378;2023-07-20T01:44:51;332.25;;;274.55;;
48481;SDS011;34284;48.278;16.378;2023-07-20T01:47:18;323.60;;;272.95;;
48481;SDS011;34284;48.278;16.378;2023-07-20T01:49:44;326.90;;;272.63;;
48481;SDS011;34284;48.278;16.378;2023-07-20T01:52:10;322.92;;;271.40;;
48481;SDS011;34284;48.278;16.378;2023-07-20T01:54:36;329.88;;;274.67;;
48481;SDS011;34284;48.278;16.378;2023-07-20T01:57:02;330.33;;;272.83;;
48481;SDS011;34284;48.278;16.378;2023-07-20T01:59:29;325.55;;;272.48;;
48481;SDS011;34284;48.278;16.378;2023-07-20T02:01:55;329.42;;;272.15;;
48481;SDS011;34284;48.278;16.378;2023-07-20T02:04:21;336.58;;;272.80;;
48481;SDS011;34284;48.278;16.378;2023-07-20T02:06:47;332.13;;;271.98;;
48481;SDS011;34284;48.278;16.378;2023-07-20T02:09:13;333.40;;;271.10;;
48481;SDS011;34284;48.278;16.378;2023-07-20T02:11:39;326.48;;;273.15;;
48481;SDS011;34284;48.278;16.378;2023-07-20T02:14:05;327.30;;;273.23;;
48481;SDS011;34284;48.278;16.378;2023-07-20T02:16:31;325.42;;;274.85;;
48481;SDS011;34284;48.278;16.378;2023-07-20T02:18:57;328.70;;;278.55;;
48481;SDS011;34284;48.278;16.378;2023-07-20T02:21:23;328.20;;;278.45;;
48481;SDS011;34284;48.278;16.378;2023-07-20T02:23:49;331.20;;;279.75;;
48481;SDS011;34284;48.278;16.378;2023-07-20T02:26:15;327.25;;;274.40;;
48481;SDS011;34284;48.278;16.378;2023-07-20T02:28:41;326.90;;;270.08;;
48481;SDS011;34284;48.278;16.378;2023-07-20T02:31:07;323.55;;;274.60;;
48481;SDS011;34284;48.278;16.378;2023-07-20T02:33:33;329.50;;;275.60;;
48481;SDS011;34284;48.278;16.378;2023-07-20T02:35:59;328.10;;;276.33;;
48481;SDS011;34284;48.278;16.378;2023-07-20T02:38:25;333.00;;;282.67;;
48481;SDS011;34284;48.278;16.378;2023-07-20T02:40:51;332.25;;;281.55;;
48481;SDS011;34284;48.278;16.378;2023-07-20T02:43:17;334.30;;;276.67;;
48481;SDS011;34284;48.278;16.378;2023-07-20T02:45:43;329.00;;;279.45;;
48481;SDS011;34284;48.278;16.378;2023-07-20T02:48:09;329.58;;;277.65;;
48481;SDS011;34284;48.278;16.378;2023-07-20T02:50:35;325.27;;;276.73;;
48481;SDS011;34284;48.278;16.378;2023-07-20T02:53:02;328.67;;;275.13;;
48481;SDS011;34284;48.278;16.378;2023-07-20T02:55:28;327.15;;;277.17;;
48481;SDS011;34284;48.278;16.378;2023-07-20T02:57:54;326.55;;;275.45;;
48481;SDS011;34284;48.278;16.378;2023-07-20T03:00:20;334.55;;;278.25;;
48481;SDS011;34284;48.278;16.378;2023-07-20T03:02:48;329.27;;;274.27;;
48481;SDS011;34284;48.278;16.378;2023-07-20T03:05:17;334.45;;;275.38;;
48481;SDS011;34284;48.278;16.378;2023-07-20T03:07:43;326.02;;;275.05;;
48481;SDS011;34284;48.278;16.378;2023-07-20T03:10:10;325.15;;;273.08;;
48481;SDS011;34284;48.278;16.378;2023-07-20T03:12:36;326.40;;;273.50;;
48481;SDS011;34284;48.278;16.378;2023-07-20T03:15:02;330.17;;;280.10;;
48481;SDS011;34284;48.278;16.378;2023-07-20T03:17:28;334.30;;;278.42;;
48481;SDS011;34284;48.278;16.378;2023-07-20T03:19:54;331.02;;;276.83;;
48481;SDS011;34284;48.278;16.378;2023-07-20T03:22:20;326.48;;;274.65;;
48481;SDS011;34284;48.278;16.378;2023-07-20T03:24:47;328.50;;;276.35;;
48481;SDS011;34284;48.278;16.378;2023-07-20T03:27:13;330.38;;;275.08;;
48481;SDS011;34284;48.278;16.378;2023-07-20T03:29:39;324.08;;;278.48;;
48481;SDS011;34284;48.278;16.378;2023-07-20T03:32:05;330.30;;;276.52;;
48481;SDS011;34284;48.278;16.378;2023-07-20T03:34:31;323.70;;;277.45;;
48481;SDS011;34284;48.278;16.378;2023-07-20T03:36:57;329.75;;;279.00;;
48481;SDS011;34284;48.278;16.378;2023-07-20T03:39:24;329.15;;;280.55;;
48481;SDS011;34284;48.278;16.378;2023-07-20T03:41:50;340.08;;;281.10;;
48481;SDS011;34284;48.278;16.378;2023-07-20T03:44:16;327.60;;;273.67;;
48481;SDS011;34284;48.278;16.378;2023-07-20T03:46:42;328.67;;;271.92;;
48481;SDS011;34284;48.278;16.378;2023-07-20T03:49:08;331.05;;;279.67;;
48481;SDS011;34284;48.278;16.378;2023-07-20T03:51:35;333.30;;;279.77;;
48481;SDS011;34284;48.278;16.378;2023-07-20T03:54:01;330.85;;;279.80;;
48481;SDS011;34284;48.278;16.378;2023-07-20T03:56:27;338.08;;;286.70;;
48481;SDS011;34284;48.278;16.378;2023-07-20T03:58:53;334.25;;;288.70;;
48481;SDS011;34284;48.278;16.378;2023-07-20T04:01:19;335.58;;;287.08;;
48481;SDS011;34284;48.278;16.378;2023-07-20T04:03:45;335.83;;;277.38;;
48481;SDS011;34284;48.278;16.378;2023-07-20T04:06:11;328.27;;;276.08;;
48481;SDS011;34284;48.278;16.378;2023-07-20T04:08:39;330.38;;;278.88;;
48481;SDS011;34284;48.278;16.378;2023-07-20T04:11:05;329.98;;;284.00;;
48481;SDS011;34284;48.278;16.378;2023-07-20T04:13:31;339.20;;;281.35;;
48481;SDS011;34284;48.278;16.378;2023-07-20T04:18:29;323.20;;;277.42;;
48481;SDS011;34284;48.278;16.378;2023-07-20T04:20:55;329.25;;;276.25;;
48481;SDS011;34284;48.278;16.378;2023-07-20T04:23:21;328.67;;;273.40;;
48481;SDS011;34284;48.278;16.378;2023-07-20T04:25:47;327.02;;;267.83;;
48481;SDS011;34284;48.278;16.378;2023-07-20T04:28:13;319.05;;;266.38;;
48481;SDS011;34284;48.278;16.378;2023-07-20T04:30:39;325.02;;;270.15;;
48481;SDS011;34284;48.278;16.378;2023-07-20T04:33:05;318.65;;;267.38;;
48481;SDS011;34284;48.278;16.378;2023-07-20T04:35:50;321.98;;;271.17;;
48481;SDS011;34284;48.278;16.378;2023-07-20T04:38:16;329.80;;;273.88;;
48481;SDS011;34284;48.278;16.378;2023-07-20T04:40:46;327.55;;;265.00;;
48481;SDS011;34284;48.278;16.378;2023-07-20T04:43:12;329.08;;;270.60;;
48481;SDS011;34284;48.278;16.378;2023-07-20T04:45:38;322.63;;;269.92;;
48481;SDS011;34284;48.278;16.378;2023-07-20T04:48:12;324.20;;;272.50;;
48481;SDS011;34284;48.278;16.378;2023-07-20T04:50:39;321.02;;;267.73;;
48481;SDS011;34284;48.278;16.378;2023-07-20T04:53:05;325.98;;;271.42;;
48481;SDS011;34284;48.278;16.378;2023-07-20T04:55:32;327.90;;;272.48;;
48481;SDS011;34284;48.278;16.378;2023-07-20T04:58:01;327.83;;;274.92;;
48481;SDS011;34284;48.278;16.378;2023-07-20T05:00:28;328.50;;;281.88;;
48481;SDS011;34284;48.278;16.378;2023-07-20T05:02:54;329.27;;;283.17;;
48481;SDS011;34284;48.278;16.378;2023-07-20T05:05:20;337.02;;;287.83;;
48481;SDS011;34284;48.278;16.378;2023-07-20T05:07:47;326.60;;;288.20;;
48481;SDS011;34284;48.278;16.378;2023-07-20T05:10:13;336.77;;;288.90;;
48481;SDS011;34284;48.278;16.378;2023-07-20T05:12:39;334.25;;;287.58;;
48481;SDS011;34284;48.278;16.378;2023-07-20T05:15:05;340.48;;;286.60;;
48481;SDS011;34284;48.278;16.378;2023-07-20T05:17:31;343.60;;;288.42;;
48481;SDS011;34284;48.278;16.378;2023-07-20T05:19:57;336.25;;;289.67;;
48481;SDS011;34284;48.278;16.378;2023-07-20T05:22:23;342.30;;;292.25;;
48481;SDS011;34284;48.278;16.378;2023-07-20T05:24:49;325.55;;;279.80;;
48481;SDS011;34284;48.278;16.378;2023-07-20T05:27:16;324.15;;;282.77;;
48481;SDS011;34284;48.278;16.378;2023-07-20T05:29:45;328.65;;;285.38;;
48481;SDS011;34284;48.278;16.378;2023-07-20T05:32:12;333.45;;;287.85;;
48481;SDS011;34284;48.278;16.378;2023-07-20T05:34:38;320.30;;;278.83;;
48481;SDS011;34284;48.278;16.378;2023-07-20T05:37:04;343.45;;;284.50;;
48481;SDS011;34284;48.278;16.378;2023-07-20T05:39:33;330.42;;;280.23;;
48481;SDS011;34284;48.278;16.378;2023-07-20T05:41:59;331.02;;;277.00;;
48481;SDS011;34284;48.278;16.378;2023-07-20T05:44:25;331.63;;;282.85;;
48481;SDS011;34284;48.278;16.378;2023-07-20T05:46:51;336.23;;;281.90;;
48481;SDS011;34284;48.278;16.378;2023-07-20T05:49:17;333.10;;;287.15;;
48481;SDS011;34284;48.278;16.378;2023-07-20T05:51:43;337.35;;;287.17;;
48481;SDS011;34284;48.278;16.378;2023-07-20T05:54:10;330.65;;;286.65;;
48481;SDS011;34284;48.278;16.378;2023-07-20T05:56:36;334.27;;;287.20;;
48481;SDS011;34284;48.278;16.378;2023-07-20T05:59:02;340.33;;;295.27;;
48481;SDS011;34284;48.278;16.378;2023-07-20T06:01:28;343.30;;;298.02;;
48481;SDS011;34284;48.278;16.378;2023-07-20T06:03:54;347.13;;;302.90;;
48481;SDS011;34284;48.278;16.378;2023-07-20T06:06:20;346.88;;;302.58;;
48481;SDS011;34284;48.278;16.378;2023-07-20T06:08:46;354.67;;;305.95;;
48481;SDS011;34284;48.278;16.378;2023-07-20T06:11:12;343.55;;;304.42;;
48481;SDS011;34284;48.278;16.378;2023-07-20T06:13:38;346.98;;;308.95;;
48481;SDS011;34284;48.278;16.378;2023-07-20T06:16:04;349.42;;;310.92;;
48481;SDS011;34284;48.278;16.378;2023-07-20T06:18:30;360.65;;;312.38;;
48481;SDS011;34284;48.278;16.378;2023-07-20T06:20:56;393.27;;;351.35;;
48481;SDS011;34284;48.278;16.378;2023-07-20T06:23:23;355.17;;;313.17;;
48481;SDS011;34284;48.278;16.378;2023-07-20T06:25:49;355.40;;;316.83;;
48481;SDS011;34284;48.278;16.378;2023-07-20T06:28:15;349.08;;;311.20;;
48481;SDS011;34284;48.278;16.378;2023-07-20T06:30:43;348.90;;;308.95;;
48481;SDS011;34284;48.278;16.378;2023-07-20T06:33:09;348.50;;;307.83;;
48481;SDS011;34284;48.278;16.378;2023-07-20T06:35:35;353.63;;;311.40;;
48481;SDS011;34284;48.278;16.378;2023-07-20T06:38:01;361.17;;;321.38;;
48481;SDS011;34284;48.278;16.378;2023-07-20T06:40:28;363.63;;;322.70;;
48481;SDS011;34284;48.278;16.378;2023-07-20T06:42:55;420.92;;;377.42;;
48481;SDS011;34284;48.278;16.378;2023-07-20T06:45:21;367.27;;;326.73;;
48481;SDS011;34284;48.278;16.378;2023-07-20T06:47:47;368.00;;;326.05;;
48481;SDS011;34284;48.278;16.378;2023-07-20T06:50:13;370.35;;;330.65;;
48481;SDS011;34284;48.278;16.378;2023-07-20T06:52:39;365.92;;;326.48;;
48481;SDS011;34284;48.278;16.378;2023-07-20T06:55:05;370.60;;;329.67;;
48481;SDS011;34284;48.278;16.378;2023-07-20T06:57:32;368.98;;;328.45;;
48481;SDS011;34284;48.278;16.378;2023-07-20T06:59:58;371.15;;;329.73;;
48481;SDS011;34284;48.278;16.378;2023-07-20T07:02:24;370.08;;;330.10;;
48481;SDS011;34284;48.278;16.378;2023-07-20T07:04:50;380.98;;;339.25;;
48481;SDS011;34284;48.278;16.378;2023-07-20T07:07:16;381.90;;;339.75;;
48481;SDS011;34284;48.278;16.378;2023-07-20T07:09:42;378.67;;;337.85;;
48481;SDS011;34284;48.278;16.378;2023-07-20T07:12:08;379.15;;;338.20;;
48481;SDS011;34284;48.278;16.378;2023-07-20T07:14:34;389.00;;;336.45;;
48481;SDS011;34284;48.278;16.378;2023-07-20T07:17:00;384.27;;;342.88;;
48481;SDS011;34284;48.278;16.378;2023-07-20T07:19:26;393.30;;;351.38;;
48481;SDS011;34284;48.278;16.378;2023-07-20T07:21:52;391.45;;;349.85;;
48481;SDS011;34284;48.278;16.378;2023-07-20T07:24:18;388.23;;;346.95;;
48481;SDS011;34284;48.278;16.378;2023-07-20T07:26:44;387.17;;;346.42;;
48481;SDS011;34284;48.278;16.378;2023-07-20T07:29:10;394.00;;;352.48;;
48481;SDS011;34284;48.278;16.378;2023-07-20T07:31:36;387.30;;;346.02;;
48481;SDS011;34284;48.278;16.378;2023-07-20T07:34:03;383.20;;;341.92;;
48481;SDS011;34284;48.278;16.378;2023-07-20T07:36:30;384.33;;;342.20;;
48481;SDS011;34284;48.278;16.378;2023-07-20T07:38:56;391.95;;;349.90;;
48481;SDS011;34284;48.278;16.378;2023-07-20T07:41:22;393.95;;;352.58;;
48481;SDS011;34284;48.278;16.378;2023-07-20T07:43:48;393.50;;;352.02;;
48481;SDS011;34284;48.278;16.378;2023-07-20T07:46:14;390.65;;;348.98;;
48481;SDS011;34284;48.278;16.378;2023-07-20T07:48:40;394.40;;;352.95;;
48481;SDS011;34284;48.278;16.378;2023-07-20T07:51:06;398.80;;;357.38;;
48481;SDS011;34284;48.278;16.378;2023-07-20T07:53:32;396.98;;;355.27;;
48481;SDS011;34284;48.278;16.378;2023-07-20T07:56:00;398.75;;;357.30;;
48481;SDS011;34284;48.278;16.378;2023-07-20T07:58:28;407.20;;;364.10;;
48481;SDS011;34284;48.278;16.378;2023-07-20T08:00:54;402.80;;;360.73;;
48481;SDS011;34284;48.278;16.378;2023-07-20T08:03:20;402.67;;;360.27;;
48481;SDS011;34284;48.278;16.378;2023-07-20T08:05:49;405.95;;;363.83;;
48481;SDS011;34284;48.278;16.378;2023-07-20T08:08:15;412.27;;;369.45;;
48481;SDS011;34284;48.278;16.378;2023-07-20T08:10:41;406.50;;;364.30;;
48481;SDS011;34284;48.278;16.378;2023-07-20T08:13:07;406.30;;;364.00;;
48481;SDS011;34284;48.278;16.378;2023-07-20T08:15:33;402.23;;;360.25;;
48481;SDS011;34284;48.278;16.378;2023-07-20T08:17:59;412.67;;;369.73;;
48481;SDS011;34284;48.278;16.378;2023-07-20T08:20:25;405.15;;;363.05;;
48481;SDS011;34284;48.278;16.378;2023-07-20T08:22:55;403.92;;;362.35;;
48481;SDS011;34284;48.278;16.378;2023-07-20T08:25:21;412.88;;;370.60;;
48481;SDS011;34284;48.278;16.378;2023-07-20T08:27:47;424.33;;;381.70;;
48481;SDS011;34284;48.278;16.378;2023-07-20T08:30:13;412.70;;;370.60;;
48481;SDS011;34284;48.278;16.378;2023-07-20T08:32:39;412.38;;;369.27;;
48481;SDS011;34284;48.278;16.378;2023-07-20T08:35:05;403.73;;;361.42;;
48481;SDS011;34284;48.278;16.378;2023-07-20T08:37:31;402.33;;;359.73;;
48481;SDS011;34284;48.278;16.378;2023-07-20T08:39:58;410.58;;;368.23;;
48481;SDS011;34284;48.278;16.378;2023-07-20T08:42:24;420.88;;;378.45;;
48481;SDS011;34284;48.278;16.378;2023-07-20T08:44:50;407.30;;;364.42;;
48481;SDS011;34284;48.278;16.378;2023-07-20T08:47:18;404.48;;;362.50;;
48481;SDS011;34284;48.278;16.378;2023-07-20T08:49:47;397.98;;;356.35;;
48481;SDS011;34284;48.278;16.378;2023-07-20T08:52:14;396.17;;;354.42;;
48481;SDS011;34284;48.278;16.378;2023-07-20T08:54:40;400.85;;;356.90;;
48481;SDS011;34284;48.278;16.378;2023-07-20T08:57:06;399.77;;;356.48;;
48481;SDS011;34284;48.278;16.378;2023-07-20T08:59:32;399.13;;;356.13;;
48481;SDS011;34284;48.278;16.378;2023-07-20T09:02:01;380.38;;;338.95;;
48481;SDS011;34284;48.278;16.378;2023-07-20T09:04:28;393.65;;;351.27;;
48481;SDS011;34284;48.278;16.378;2023-07-20T09:06:54;380.85;;;340.02;;
48481;SDS011;34284;48.278;16.378;2023-07-20T09:09:20;415.10;;;353.00;;
48481;SDS011;34284;48.278;16.378;2023-07-20T09:11:49;417.50;;;343.40;;
48481;SDS011;34284;48.278;16.378;2023-07-20T09:14:15;406.77;;;341.20;;
48481;SDS011;34284;48.278;16.378;2023-07-20T09:16:48;411.13;;;352.58;;
48481;SDS011;34284;48.278;16.378;2023-07-20T09:19:15;400.10;;;348.38;;
48481;SDS011;34284;48.278;16.378;2023-07-20T09:21:43;427.17;;;347.67;;
48481;SDS011;34284;48.278;16.378;2023-07-20T09:24:10;422.67;;;339.50;;
48481;SDS011;34284;48.278;16.378;2023-07-20T09:26:46;384.70;;;343.00;;
48481;SDS011;34284;48.278;16.378;2023-07-20T09:29:19;376.52;;;332.08;;
48481;SDS011;34284;48.278;16.378;2023-07-20T09:32:01;374.52;;;333.63;;
48481;SDS011;34284;48.278;16.378;2023-07-20T09:34:28;369.33;;;328.60;;
48481;SDS011;34284;48.278;16.378;2023-07-20T09:36:55;381.50;;;333.00;;
48481;SDS011;34284;48.278;16.378;2023-07-20T09:39:21;374.05;;;333.30;;
48481;SDS011;34284;48.278;16.378;2023-07-20T09:41:47;376.42;;;334.88;;
48481;SDS011;34284;48.278;16.378;2023-07-20T09:44:14;368.40;;;328.10;;
48481;SDS011;34284;48.278;16.378;2023-07-20T09:46:44;368.45;;;327.80;;
48481;SDS011;34284;48.278;16.378;2023-07-20T09:49:10;370.23;;;329.80;;
48481;SDS011;34284;48.278;16.378;2023-07-20T09:51:36;373.30;;;328.88;;
48481;SDS011;34284;48.278;16.378;2023-07-20T09:54:03;377.52;;;336.90;;
48481;SDS011;34284;48.278;16.378;2023-07-20T09:56:29;367.95;;;327.30;;
48481;SDS011;34284;48.278;16.378;2023-07-20T09:58:56;371.58;;;331.25;;
48481;SDS011;34284;48.278;16.378;2023-07-20T10:01:22;366.60;;;326.05;;
48481;SDS011;34284;48.278;16.378;2023-07-20T10:03:50;369.23;;;328.52;;
48481;SDS011;34284;48.278;16.378;2023-07-20T10:06:19;377.25;;;336.80;;
48481;SDS011;34284;48.278;16.378;2023-07-20T10:08:46;359.95;;;320.42;;
48481;SDS011;34284;48.278;16.378;2023-07-20T10:11:15;360.67;;;320.73;;
48481;SDS011;34284;48.278;16.378;2023-07-20T10:13:41;368.98;;;325.67;;
48481;SDS011;34284;48.278;16.378;2023-07-20T10:16:10;379.90;;;339.60;;
48481;SDS011;34284;48.278;16.378;2023-07-20T10:18:57;372.55;;;331.73;;
48481;SDS011;34284;48.278;16.378;2023-07-20T10:21:25;372.02;;;331.85;;
48481;SDS011;34284;48.278;16.378;2023-07-20T10:23:51;386.67;;;345.20;;
48481;SDS011;34284;48.278;16.378;2023-07-20T10:26:17;382.13;;;340.95;;
48481;SDS011;34284;48.278;16.378;2023-07-20T10:28:43;388.73;;;346.55;;
48481;SDS011;34284;48.278;16.378;2023-07-20T10:31:10;376.52;;;335.95;;
48481;SDS011;34284;48.278;16.378;2023-07-20T10:33:37;378.58;;;336.60;;
48481;SDS011;34284;48.278;16.378;2023-07-20T10:36:04;386.05;;;344.20;;
48481;SDS011;34284;48.278;16.378;2023-07-20T10:38:51;444.42;;;399.95;;
48481;SDS011;34284;48.278;16.378;2023-07-20T10:41:19;382.67;;;341.42;;
48481;SDS011;34284;48.278;16.378;2023-07-20T10:43:46;390.90;;;348.73;;
48481;SDS011;34284;48.278;16.378;2023-07-20T10:46:12;396.17;;;353.75;;
48481;SDS011;34284;48.278;16.378;2023-07-20T10:51:23;391.80;;;350.42;;
48481;SDS011;34284;48.278;16.378;2023-07-20T10:53:49;403.05;;;361.33;;
48481;SDS011;34284;48.278;16.378;2023-07-20T10:56:20;391.75;;;350.10;;
48481;SDS011;34284;48.278;16.378;2023-07-20T10:58:46;404.25;;;362.63;;
48481;SDS011;34284;48.278;16.378;2023-07-20T11:01:13;403.83;;;362.42;;
48481;SDS011;34284;48.278;16.378;2023-07-20T11:03:39;399.50;;;356.88;;
48481;SDS011;34284;48.278;16.378;2023-07-20T11:08:57;408.02;;;365.58;;
48481;SDS011;34284;48.278;16.378;2023-07-20T11:11:33;402.85;;;361.05;;
48481;SDS011;34284;48.278;16.378;2023-07-20T11:13:59;391.65;;;350.67;;
48481;SDS011;34284;48.278;16.378;2023-07-20T11:16:37;392.95;;;351.55;;
48481;SDS011;34284;48.278;16.378;2023-07-20T11:19:04;395.90;;;353.67;;
48481;SDS011;34284;48.278;16.378;2023-07-20T11:21:34;394.00;;;352.67;;
48481;SDS011;34284;48.278;16.378;2023-07-20T11:24:02;395.20;;;353.65;;
48481;SDS011;34284;48.278;16.378;2023-07-20T11:26:29;392.20;;;351.20;;
48481;SDS011;34284;48.278;16.378;2023-07-20T11:28:55;395.90;;;354.92;;
48481;SDS011;34284;48.278;16.378;2023-07-20T11:31:21;390.65;;;348.80;;
48481;SDS011;34284;48.278;16.378;2023-07-20T11:33:47;395.23;;;353.10;;
48481;SDS011;34284;48.278;16.378;2023-07-20T11:36:13;392.33;;;351.30;;
48481;SDS011;34284;48.278;16.378;2023-07-20T11:38:41;398.80;;;357.45;;
48481;SDS011;34284;48.278;16.378;2023-07-20T11:41:08;393.48;;;351.98;;
48481;SDS011;34284;48.278;16.378;2023-07-20T11:43:34;397.10;;;355.38;;
48481;SDS011;34284;48.278;16.378;2023-07-20T11:46:04;394.60;;;352.52;;
48481;SDS011;34284;48.278;16.378;2023-07-20T11:48:30;392.50;;;351.98;;
48481;SDS011;34284;48.278;16.378;2023-07-20T11:50:56;405.10;;;363.40;;
48481;SDS011;34284;48.278;16.378;2023-07-20T11:53:22;402.77;;;361.73;;
48481;SDS011;34284;48.278;16.378;2023-07-20T11:55:50;504.77;;;363.27;;
48481;SDS011;34284;48.278;16.378;2023-07-20T11:58:17;391.25;;;350.35;;
48481;SDS011;34284;48.278;16.378;2023-07-20T12:00:43;390.75;;;349.27;;
48481;SDS011;34284;48.278;16.378;2023-07-20T12:03:11;403.55;;;362.02;;
48481;SDS011;34284;48.278;16.378;2023-07-20T12:05:38;404.63;;;363.10;;
48481;SDS011;34284;48.278;16.378;2023-07-20T12:08:04;401.65;;;359.38;;
48481;SDS011;34284;48.278;16.378;2023-07-20T12:10:30;441.83;;;384.30;;
48481;SDS011;34284;48.278;16.378;2023-07-20T12:13:02;402.52;;;361.17;;
48481;SDS011;34284;48.278;16.378;2023-07-20T12:15:29;406.15;;;364.92;;
48481;SDS011;34284;48.278;16.378;2023-07-20T12:17:57;418.40;;;375.85;;
48481;SDS011;34284;48.278;16.378;2023-07-20T12:22:53;409.90;;;368.02;;
48481;SDS011;34284;48.278;16.378;2023-07-20T12:25:21;413.20;;;370.88;;
48481;SDS011;34284;48.278;16.378;2023-07-20T12:27:47;413.02;;;370.05;;
48481;SDS011;34284;48.278;16.378;2023-07-20T12:30:14;417.25;;;374.73;;
48481;SDS011;34284;48.278;16.378;2023-07-20T12:32:40;413.75;;;371.52;;
48481;SDS011;34284;48.278;16.378;2023-07-20T12:35:06;421.17;;;377.17;;
48481;SDS011;34284;48.278;16.378;2023-07-20T12:37:32;419.17;;;375.83;;
48481;SDS011;34284;48.278;16.378;2023-07-20T12:39:58;418.42;;;375.88;;
48481;SDS011;34284;48.278;16.378;2023-07-20T12:42:24;409.33;;;367.45;;
48481;SDS011;34284;48.278;16.378;2023-07-20T12:44:50;414.90;;;372.13;;
48481;SDS011;34284;48.278;16.378;2023-07-20T12:47:17;420.33;;;376.90;;
48481;SDS011;34284;48.278;16.378;2023-07-20T12:49:43;415.67;;;372.83;;
48481;SDS011;34284;48.278;16.378;2023-07-20T12:52:12;415.42;;;372.77;;
48481;SDS011;34284;48.278;16.378;2023-07-20T12:54:38;421.95;;;378.67;;
48481;SDS011;34284;48.278;16.378;2023-07-20T12:57:04;415.90;;;373.23;;
48481;SDS011;34284;48.278;16.378;2023-07-20T12:59:31;416.95;;;373.70;;
48481;SDS011;34284;48.278;16.378;2023-07-20T13:01:57;407.88;;;365.45;;
48481;SDS011;34284;48.278;16.378;2023-07-20T13:04:25;411.00;;;368.67;;
48481;SDS011;34284;48.278;16.378;2023-07-20T13:06:51;407.90;;;365.05;;
48481;SDS011;34284;48.278;16.378;2023-07-20T13:09:17;413.10;;;370.55;;
48481;SDS011;34284;48.278;16.378;2023-07-20T13:11:43;411.00;;;368.08;;
48481;SDS011;34284;48.278;16.378;2023-07-20T13:14:11;415.17;;;371.67;;
48481;SDS011;34284;48.278;16.378;2023-07-20T13:16:37;420.80;;;376.33;;
48481;SDS011;34284;48.278;16.378;2023-07-20T13:19:03;421.60;;;379.05;;
48481;SDS011;34284;48.278;16.378;2023-07-20T13:21:29;424.63;;;380.90;;
48481;SDS011;34284;48.278;16.378;2023-07-20T13:23:55;409.55;;;367.48;;
48481;SDS011;34284;48.278;16.378;2023-07-20T13:26:21;419.52;;;375.67;;
48481;SDS011;34284;48.278;16.378;2023-07-20T13:28:47;414.40;;;371.13;;
48481;SDS011;34284;48.278;16.378;2023-07-20T13:31:13;411.25;;;368.52;;
48481;SDS011;34284;48.278;16.378;2023-07-20T13:33:39;410.80;;;368.23;;
48481;SDS011;34284;48.278;16.378;2023-07-20T13:36:05;409.50;;;365.23;;
48481;SDS011;34284;48.278;16.378;2023-07-20T13:38:31;402.50;;;360.05;;
48481;SDS011;34284;48.278;16.378;2023-07-20T13:40:57;401.48;;;358.58;;
48481;SDS011;34284;48.278;16.378;2023-07-20T13:43:23;400.13;;;358.05;;
48481;SDS011;34284;48.278;16.378;2023-07-20T13:45:50;416.00;;;372.20;;
48481;SDS011;34284;48.278;16.378;2023-07-20T13:48:16;409.15;;;365.65;;
48481;SDS011;34284;48.278;16.378;2023-07-20T13:50:44;398.02;;;355.55;;
48481;SDS011;34284;48.278;16.378;2023-07-20T13:53:10;402.33;;;359.95;;
48481;SDS011;34284;48.278;16.378;2023-07-20T13:55:36;395.13;;;352.48;;
48481;SDS011;34284;48.278;16.378;2023-07-20T13:58:03;391.42;;;348.90;;
48481;SDS011;34284;48.278;16.378;2023-07-20T14:00:29;394.27;;;352.55;;
48481;SDS011;34284;48.278;16.378;2023-07-20T14:02:58;391.27;;;349.95;;
48481;SDS011;34284;48.278;16.378;2023-07-20T14:05:24;390.27;;;349.20;;